createdAt,value
2023-05-25T00:00:15.832Z,99.90
2023-05-25T00:05:18.455Z,99.90
2023-05-25T00:10:20.453Z,99.90
2023-05-25T00:15:23.252Z,99.90
2023-05-25T00:20:25.200Z,99.90
2023-05-25T00:25:27.090Z,99.90
2023-05-25T00:30:28.935Z,99.90
2023-05-25T00:35:30.778Z,99.90
2023-05-25T00:40:33.071Z,99.90
2023-05-25T00:45:35.054Z,99.90
2023-05-25T00:50:39.016Z,99.90
2023-05-25T00:55:56.010Z,99.90
2023-05-25T01:00:58.502Z,99.90
2023-05-25T01:06:04.132Z,99.90
2023-05-25T01:11:06.745Z,99.90
2023-05-25T01:16:09.903Z,99.90
2023-05-25T01:21:20.220Z,99.90
2023-05-25T01:26:23.955Z,99.90
2023-05-25T01:31:26.180Z,99.90
2023-05-25T01:36:28.060Z,99.90
2023-05-25T01:41:29.936Z,99.90
2023-05-25T01:46:38.312Z,99.90
2023-05-25T01:52:08.318Z,99.90
2023-05-25T01:57:17.857Z,99.90
2023-05-25T02:02:20.583Z,99.90
2023-05-25T02:07:25.637Z,99.90
2023-05-25T02:12:27.534Z,99.90
2023-05-25T02:17:30.259Z,99.90
2023-05-25T02:22:32.931Z,99.90
2023-05-25T02:27:36.206Z,99.90
2023-05-25T02:32:38.113Z,99.90
2023-05-25T02:37:40.169Z,99.90
2023-05-25T02:42:42.006Z,99.90
2023-05-25T02:47:43.871Z,99.90
2023-05-25T02:52:45.774Z,99.90
2023-05-25T02:57:47.656Z,99.90
2023-05-25T03:02:50.688Z,99.90
2023-05-25T03:07:54.369Z,99.90
2023-05-25T03:12:56.243Z,99.90
2023-05-25T03:18:01.374Z,99.90
2023-05-25T03:23:03.475Z,99.90
2023-05-25T03:28:05.434Z,99.90
2023-05-25T03:33:07.399Z,99.90
2023-05-25T03:38:09.352Z,99.90
2023-05-25T03:43:11.222Z,99.90
2023-05-25T03:48:13.069Z,99.90
2023-05-25T03:53:14.919Z,99.90
2023-05-25T03:58:18.481Z,99.90
2023-05-25T04:03:20.828Z,99.90
2023-05-25T04:08:23.998Z,99.90
2023-05-25T04:13:26.297Z,99.90
2023-05-25T04:18:28.204Z,99.90
2023-05-25T04:23:30.096Z,99.90
2023-05-25T04:28:32.549Z,99.90
2023-05-25T04:33:39.667Z,99.90
2023-05-25T04:38:43.020Z,99.90
2023-05-25T04:44:05.326Z,99.90
2023-05-25T04:49:09.928Z,99.90
2023-05-25T04:54:11.826Z,99.90
2023-05-25T04:59:13.714Z,99.90
2023-05-25T05:04:16.711Z,99.90
2023-05-25T05:09:18.681Z,99.90
2023-05-25T05:14:20.980Z,99.90
2023-05-25T05:19:23.537Z,98.90
2023-05-25T05:24:26.029Z,98.00
2023-05-25T05:29:28.813Z,96.70
2023-05-25T05:34:30.714Z,95.50
2023-05-25T05:39:32.562Z,94.10
2023-05-25T05:44:34.396Z,93.60
2023-05-25T05:49:38.246Z,93.40
2023-05-25T05:54:40.112Z,92.30
2023-05-25T05:59:42.283Z,91.40
2023-05-25T06:04:44.201Z,91.30
2023-05-25T06:09:47.157Z,90.20
2023-05-25T06:14:52.138Z,88.00
2023-05-25T06:19:56.196Z,89.10
2023-05-25T06:24:59.258Z,87.00
2023-05-25T06:30:01.221Z,85.90
2023-05-25T06:35:03.232Z,86.70
2023-05-25T06:40:09.552Z,83.30
2023-05-25T06:45:11.935Z,83.60
2023-05-25T06:50:13.892Z,82.60
2023-05-25T06:55:15.937Z,80.50
2023-05-25T07:00:18.732Z,81.40
2023-05-25T07:05:20.695Z,81.10
2023-05-25T07:10:22.943Z,80.70
2023-05-25T07:15:24.830Z,80.10
2023-05-25T07:20:27.600Z,79.50
2023-05-25T07:25:29.523Z,77.40
2023-05-25T07:30:32.419Z,76.70
2023-05-25T07:35:35.547Z,78.20
2023-05-25T07:40:37.558Z,78.10
2023-05-25T07:45:40.081Z,78.30
2023-05-25T07:50:41.921Z,77.80
2023-05-25T07:55:44.053Z,78.30
2023-05-25T08:00:49.761Z,78.20
2023-05-25T08:05:52.000Z,78.10
2023-05-25T08:10:53.924Z,76.50
2023-05-25T08:15:55.834Z,75.50
2023-05-25T08:20:58.296Z,72.90
2023-05-25T08:26:01.221Z,71.20
2023-05-25T08:31:04.295Z,71.00
2023-05-25T08:36:06.678Z,70.50
2023-05-25T08:41:08.800Z,69.40
2023-05-25T08:46:10.696Z,69.90
2023-05-25T08:51:13.867Z,69.70
2023-05-25T08:56:23.228Z,68.30
2023-05-25T09:01:27.748Z,69.80
2023-05-25T09:06:29.960Z,70.40
2023-05-25T09:11:39.699Z,68.70
2023-05-25T09:16:42.666Z,70.30
2023-05-25T09:21:44.889Z,65.30
2023-05-25T09:26:48.910Z,66.90
2023-05-25T09:31:51.019Z,66.00
2023-05-25T09:36:53.089Z,66.50
2023-05-25T09:41:55.114Z,67.20
2023-05-25T09:46:56.976Z,65.40
2023-05-25T09:51:59.299Z,66.60
2023-05-25T09:57:05.376Z,67.40
2023-05-25T10:02:07.373Z,67.20
2023-05-25T10:07:09.262Z,67.30
2023-05-25T10:12:12.036Z,68.90
2023-05-25T10:17:19.952Z,67.50
2023-05-25T10:22:37.157Z,66.70
2023-05-25T10:46:38.729Z,69.20
2023-05-25T11:11:05.629Z,67.50
2023-05-25T11:16:19.068Z,66.20
2023-05-25T11:21:27.314Z,67.90
2023-05-25T11:26:34.293Z,69.10
2023-05-25T11:37:33.564Z,67.70
2023-05-25T11:42:36.113Z,68.90
2023-05-25T11:47:38.237Z,67.80
2023-05-25T11:52:40.399Z,65.80
2023-05-25T11:57:42.334Z,68.20
2023-05-25T12:02:44.358Z,66.50
2023-05-25T12:07:47.141Z,67.90
2023-05-25T12:12:50.452Z,63.40
2023-05-25T12:17:54.353Z,65.10
2023-05-25T12:22:57.865Z,66.20
2023-05-25T12:28:13.605Z,66.20
2023-05-25T12:33:15.621Z,65.70
2023-05-25T12:38:19.665Z,66.40
2023-05-25T12:43:21.620Z,65.90
2023-05-25T12:54:06.260Z,66.60
2023-05-25T12:59:17.126Z,67.50
2023-05-25T13:04:18.969Z,68.20
2023-05-25T13:09:23.938Z,67.30
2023-05-25T13:14:29.393Z,68.20
2023-05-25T13:19:31.414Z,65.60
2023-05-25T13:24:33.883Z,67.00
2023-05-25T13:29:36.106Z,68.30
2023-05-25T13:34:37.977Z,68.10
2023-05-25T13:39:39.891Z,68.50
2023-05-25T13:44:41.899Z,69.20
2023-05-25T13:49:45.826Z,67.00
2023-05-25T13:54:47.688Z,68.40
2023-05-25T13:59:49.624Z,67.00
2023-05-25T14:04:51.532Z,66.80
2023-05-25T14:09:57.505Z,66.70
2023-05-25T14:15:00.127Z,67.80
2023-05-25T14:20:04.319Z,68.80
2023-05-25T14:25:07.320Z,70.70
2023-05-25T14:30:14.201Z,69.90
2023-05-25T14:35:16.614Z,68.10
2023-05-25T14:40:18.618Z,68.70
2023-05-25T14:45:20.601Z,67.90
2023-05-25T14:50:22.552Z,68.30
2023-05-25T14:55:25.750Z,69.40
2023-05-25T15:00:27.651Z,68.60
2023-05-25T15:05:29.581Z,69.50
2023-05-25T15:10:34.482Z,68.90
2023-05-25T15:15:39.208Z,69.00
2023-05-25T15:20:42.023Z,68.60
2023-05-25T15:25:46.093Z,69.70
2023-05-25T15:30:48.310Z,69.10
2023-05-25T15:35:50.241Z,70.10
2023-05-25T15:40:52.107Z,70.00
2023-05-25T15:45:54.968Z,70.30
2023-05-25T15:50:56.933Z,71.60
2023-05-25T15:55:58.786Z,70.20
2023-05-25T16:01:01.120Z,71.60
2023-05-25T16:06:03.164Z,72.00
2023-05-25T16:11:06.247Z,71.00
2023-05-25T16:16:09.798Z,71.80
2023-05-25T16:21:11.910Z,71.60
2023-05-25T16:26:13.771Z,71.80
2023-05-25T16:31:16.603Z,72.30
2023-05-25T16:36:18.517Z,72.90
2023-05-25T16:41:20.536Z,72.50
2023-05-25T16:46:22.476Z,72.90
2023-05-25T16:51:24.482Z,74.00
2023-05-25T16:56:26.758Z,74.20
2023-05-25T17:01:28.642Z,75.00
2023-05-25T17:06:31.190Z,74.40
2023-05-25T17:11:35.097Z,75.20
2023-05-25T17:16:39.297Z,75.90
2023-05-25T17:21:41.320Z,75.70
2023-05-25T17:26:43.195Z,76.30
2023-05-25T17:31:48.304Z,76.50
2023-05-25T17:36:50.679Z,75.80
2023-05-25T17:41:52.565Z,77.10
2023-05-25T17:46:54.490Z,77.60
2023-05-25T17:52:02.093Z,77.70
2023-05-25T17:57:04.222Z,79.00
2023-05-25T18:02:08.611Z,80.40
2023-05-25T18:07:10.685Z,81.40
2023-05-25T18:12:12.576Z,82.00
2023-05-25T18:17:14.620Z,82.70
2023-05-25T18:22:16.832Z,84.90
2023-05-25T18:27:18.993Z,85.60
2023-05-25T18:32:23.872Z,86.30
2023-05-25T18:37:26.519Z,88.40
2023-05-25T18:42:28.510Z,89.60
2023-05-25T18:47:30.456Z,90.70
2023-05-25T18:52:32.422Z,91.50
2023-05-25T18:57:34.513Z,92.00
2023-05-25T19:02:37.068Z,92.60
2023-05-25T19:07:54.707Z,93.20
2023-05-25T19:12:59.991Z,93.80
2023-05-25T19:18:07.997Z,94.00
2023-05-25T19:23:10.534Z,94.00
2023-05-25T19:28:12.973Z,97.40
2023-05-25T19:33:14.928Z,99.20
2023-05-25T19:38:16.906Z,99.10
2023-05-25T19:43:19.011Z,98.90
2023-05-25T19:48:24.239Z,98.80
2023-05-25T19:54:17.135Z,99.30
2023-05-25T19:59:21.197Z,99.90
2023-05-25T20:04:23.188Z,99.90
2023-05-25T20:09:30.229Z,99.90
2023-05-25T20:14:33.712Z,99.90
2023-05-25T20:19:35.706Z,99.90
2023-05-25T20:24:37.645Z,99.90
2023-05-25T20:29:39.688Z,99.90
2023-05-25T20:34:41.836Z,99.90
2023-05-25T20:39:43.880Z,99.90
2023-05-25T20:44:45.845Z,99.90
2023-05-25T20:49:47.708Z,99.90
2023-05-25T20:54:49.571Z,99.90
2023-05-25T20:59:51.770Z,99.90
2023-05-25T21:04:53.652Z,99.90
2023-05-25T21:10:01.599Z,99.90
2023-05-25T21:15:04.157Z,99.90
2023-05-25T21:20:07.078Z,99.90
2023-05-25T21:25:09.335Z,99.90
2023-05-25T21:30:11.898Z,99.90
2023-05-25T21:35:17.918Z,99.90
2023-05-25T21:40:19.768Z,99.90
2023-05-25T21:45:21.683Z,99.90
2023-05-25T21:50:23.559Z,99.90
2023-05-25T21:55:25.520Z,99.90
2023-05-25T22:00:27.364Z,99.90
2023-05-25T22:05:34.178Z,99.90
2023-05-25T22:10:36.577Z,99.90
2023-05-25T22:15:39.042Z,99.90
2023-05-25T22:20:42.085Z,99.90
2023-05-25T22:25:44.326Z,99.90
2023-05-25T22:30:46.450Z,99.90
2023-05-25T22:35:48.663Z,99.90
2023-05-25T22:40:50.681Z,99.90
2023-05-25T22:45:54.082Z,99.90
2023-05-25T22:50:55.927Z,99.90
2023-05-25T22:55:57.853Z,99.90
2023-05-25T23:00:59.697Z,99.90
2023-05-25T23:06:01.576Z,99.90
2023-05-25T23:11:03.476Z,99.90
2023-05-25T23:16:05.749Z,99.90
2023-05-25T23:21:07.650Z,99.90
2023-05-25T23:26:09.540Z,99.90
2023-05-25T23:31:11.473Z,99.90
2023-05-25T23:36:14.222Z,99.90
2023-05-25T23:41:17.191Z,99.90
2023-05-25T23:46:19.308Z,99.90
2023-05-25T23:51:21.290Z,99.90
2023-05-25T23:56:23.201Z,99.90
